Airfield :
LOGIN :

Register | Disclaimer

   EN    FR    IT 

 










Legend :    VFR   Marginal VFR   IFR   Intensive IFR   Very Intensive IFR
Visi :
Ceiling :
>= 8 km
>= 3000ft
5 to 8 km
1000 to 3000 ft
1500m to 5 km
500 to 1000 ft
800 to 1500m
200 to 500 ft
< 800m
< 200 ft
Symbols :   Thunderstorms  Fog  Heavy snow  Heavy precipitations  Wind > 20 kt
SIGMETs :     Misc.  Thunderstorms  Icing  Turbulence  Mountain Waves  Volcanic Ashes






- Airport Elevation : 485 ft
- IATA code : QSA


LELL - Sabadell

CURRENT METAR :
  • 080830Z AUTO VRB01KT CAVOK 16/08 Q1026

EXPIRED METARs :
  • 080800Z AUTO VRB02KT 9999 FEW059 14/09 Q1026
  • 080730Z AUTO VRB02KT 9999 BKN058 13/09 Q1026
  • 080700Z AUTO VRB01KT CAVOK 12/09 Q1025
  • 080630Z AUTO 29002KT CAVOK 10/08 Q1025
  • 080600Z AUTO 00000KT CAVOK 09/08 Q1025

TAF TAF LELL
Valid from the 08 at 09:00 until the 09 at 09:00 UTC


080800Z 0809/0909 VRB03KT 9999 FEW030 TX19/0812Z TN09/0906Z
TEMPO 0810/0818 17008KT



MET'MAP, your aeronautical weather chart ! - Copyright ORBIFLY December 2007 - Disclaimer

ORBIFLY MET'MAP TEAM :

Programming & Development : Alexandra Zaïnal
Concept & original design : Baudouin d'Aumeries
Assistance for programming : Marc-Olivier Méhu
Technical & hardware support : Manuel Goepfert

Contact : metmap@orbifly.com




SOURCES & CREDITS :

   NOAA